ENFB/FBU METAR and TAF weather

Enter ICAO airport designator
Station Type Date Time Source
ENFB METAR 2020/07/12 05:50 UTC NOAA

ENFB 120550Z AUTO 28022KT 9999NDV BKN008/// BKN066/// 12/11 Q1015 W///S4


Station Type Date Time Source
ENFB Decoded METAR 2020/07/12 05:50 UTC NOAA

Oslo / Fornebu, Norway (ENFB) 59-54N 010-38E 17M
Jul 12, 2020 - 01:50 AM EDT / 2020.07.12 0550 UTC
Wind: from the W (280 degrees) at 25 MPH (22 KT):0
Sky conditions: mostly cloudy
Temperature: 53 F (12 C)
Dew Point: 51 F (11 C)
Relative Humidity: 93%
Pressure (altimeter): 29.97 in. Hg (1015 hPa)
ob: ENFB 120550Z AUTO 28022KT 9999NDV BKN008/// BKN066/// 12/11 Q1015 W///S4
cycle: 6

Station Type Date Time Source
ENFB TAF UTC NOAA

Error!

Example: see airport list